Dong Hao — 9LU2555 — position and weather

sailwx.info

Track history (hours):
 
Tides and Currents Weather Stations Pressure Air Temp Water Temp Dewpoint Dewpoint Depression Visibility Wind Speed Wind Dir Waves Ship Positions

Dong Hao

Last reported at 2018-Jun-07 22:22 UTC. Time now 2018-Jun-18 17:37 UTC.
Position N 31°01' E 122°33'.
Warning: this ship's position is 10 days out of date.

Length 76 m; draft 4.8 m.

Type: Cargo ship. MMSI: 667001752.

Date/timePositionNaut miles runAvg speedWind from/ knotsBaromVisibWave heightAir tempDewpointWater temp
2018-Jun-07 22:22N 31°01' E 122°33'  
2018-Jun-02 15:24N 34°28' E 134°30'6 9.3
2018-Jun-02 14:47N 34°30' E 134°37'3 9.8
2018-Jun-02 14:30N 34°31' E 134°40'510.7
2018-Jun-02 14:00N 34°33' E 134°46'1212.4
2018-Jun-02 13:00N 34°38' E 134°60'611.4
2018-Jun-02 12:30N 34°36' E 135°06'4 8.8
2018-Jun-02 12:00N 34°36' E 135°12'4 8.9
2018-Jun-02 11:30N 34°36' E 135°17'4 8.7
2018-Jun-02 11:00N 34°38' E 135°22'3 5.6
2018-Jun-02 10:30N 34°37' E 135°25'0 0.0
2018-Jun-02 09:53N 34°37' E 135°25'0 0.0
2018-Jun-02 09:29N 34°37' E 135°25'0 0.0
2018-Jun-02 08:53N 34°37' E 135°25'0 0.0
2018-Jun-02 08:29N 34°37' E 135°25'0 0.0
2018-Jun-02 07:47N 34°37' E 135°25'0 0.0
2018-Jun-02 07:29N 34°37' E 135°25'0 0.0
2018-Jun-02 06:59N 34°37' E 135°25'0 0.0
2018-Jun-02 06:29N 34°37' E 135°25'0 0.0
2018-Jun-02 05:53N 34°37' E 135°25'0 0.0
2018-Jun-02 05:17N 34°37' E 135°25'0 0.0
2018-Jun-02 03:41N 34°37' E 135°25'0 0.0
2018-Jun-02 03:23N 34°37' E 135°25'0 0.0
2018-Jun-02 02:59N 34°37' E 135°25'0 0.0
2018-Jun-02 02:29N 34°37' E 135°25'0 0.0
2018-Jun-02 01:59N 34°37' E 135°25'0 0.0
2018-Jun-02 01:29N 34°37' E 135°25'0 0.0
2018-Jun-02 00:59N 34°37' E 135°25'0 0.0
2018-Jun-02 00:17N 34°37' E 135°25'0 0.0
2018-Jun-01 23:59N 34°37' E 135°25'0 0.0
2018-Jun-01 23:23N 34°37' E 135°25'0 0.0
2018-Jun-01 22:53N 34°37' E 135°25'0 0.0
2018-Jun-01 10:10N 34°37' E 135°25'0 0.0
2018-Jun-01 09:52N 34°37' E 135°25'0 0.0
2018-Jun-01 09:22N 34°37' E 135°25'0 0.0
2018-Jun-01 08:52N 34°37' E 135°25'0 0.0
2018-Jun-01 08:04N 34°37' E 135°25'0 0.0
2018-Jun-01 07:58N 34°37' E 135°25'0 0.0
2018-Jun-01 07:10N 34°37' E 135°25'0 0.0
2018-Jun-01 06:52N 34°37' E 135°25'0 0.0
2018-Jun-01 06:28N 34°37' E 135°25'0 0.0
2018-Jun-01 05:58N 34°37' E 135°25'0 0.0
2018-May-31 21:22N 34°37' E 135°25'0 0.0
2018-May-31 11:34N 34°37' E 135°25'0 0.0
2018-May-31 11:10N 34°37' E 135°25'0 0.0
2018-May-31 10:46N 34°37' E 135°25'0 0.0
2018-May-31 10:16N 34°37' E 135°25'0 0.0
2018-May-31 09:04N 34°37' E 135°25'0 0.1
2018-May-31 08:58N 34°37' E 135°25'0 0.0
2018-May-31 08:22N 34°37' E 135°25'0 0.0
2018-May-31 07:58N 34°37' E 135°25'0 0.0
2018-May-31 07:17N 34°37' E 135°25'0 0.0
2018-May-31 06:47N 34°37' E 135°25'0 0.0
2018-May-31 06:29N 34°37' E 135°25'0 0.0
2018-May-31 05:59N 34°37' E 135°25'0 0.0
2018-May-31 04:41N 34°37' E 135°25'0 0.0
2018-May-31 04:29N 34°37' E 135°25'0 0.0
2018-May-31 03:52N 34°37' E 135°25'0 0.0
2018-May-31 03:16N 34°37' E 135°25'0 0.0
2018-May-31 02:52N 34°37' E 135°25'0 0.0
2018-May-31 02:28N 34°37' E 135°25'0 0.0
2018-May-31 01:04N 34°37' E 135°25'0 0.0
2018-May-31 00:40N 34°37' E 135°25'0 0.0
2018-May-31 00:16N 34°37' E 135°25'0 0.0
2018-May-30 23:52N 34°37' E 135°25'0 0.0
2018-May-30 23:22N 34°37' E 135°25'0 0.0
2018-May-30 22:58N 34°37' E 135°25'0 0.0
2018-May-30 22:28N 34°37' E 135°25'1 2.1
2018-May-30 21:59N 34°37' E 135°24'1 2.4
2018-May-30 21:30N 34°37' E 135°23'0 0.0
2018-May-30 20:54N 34°37' E 135°23'0 0.0
2018-May-30 20:30N 34°37' E 135°23'0 0.0
2018-May-30 19:48N 34°37' E 135°23'0 0.0
2018-May-30 19:18N 34°37' E 135°23'0 0.0
2018-May-30 19:00N 34°37' E 135°23'0 0.1
2018-May-30 18:30N 34°37' E 135°23'0 0.0
2018-May-30 17:54N 34°38' E 135°23'0 0.0
2018-May-30 17:30N 34°38' E 135°23'0 0.0
2018-May-30 17:00N 34°38' E 135°23'0 0.1
2018-May-30 16:24N 34°37' E 135°23'0 0.0
2018-May-30 16:00N 34°37' E 135°23'0 0.0
2018-May-30 13:42N 34°38' E 135°23'0 0.0
2018-May-30 13:30N 34°37' E 135°23'0 0.0
2018-May-30 12:24N 34°37' E 135°23'0 0.1
2018-May-30 12:00N 34°37' E 135°23'0 0.0
2018-May-30 11:30N 34°37' E 135°23'0 0.0
2018-May-30 10:24N 34°37' E 135°23'0 0.0
2018-May-30 09:54N 34°37' E 135°23'0 0.0
2018-May-30 09:24N 34°37' E 135°23'0 0.1
2018-May-30 09:00N 34°37' E 135°23'0 0.1
2018-May-30 08:24N 34°37' E 135°23'0 0.0
2018-May-30 06:42N 34°37' E 135°23'0 0.0
2018-May-30 05:00N 34°37' E 135°23'0 0.0
2018-May-30 04:30N 34°37' E 135°23'0 0.0
2018-May-30 04:00N 34°37' E 135°23'0 0.0
2018-May-30 03:24N 34°37' E 135°23'0 0.0
2018-May-30 03:00N 34°37' E 135°23'0 0.0
2018-May-30 02:30N 34°37' E 135°23'1 1.1
2018-May-30 02:00N 34°37' E 135°22'4 8.6
2018-May-30 01:30N 34°36' E 135°17'4 9.1
2018-May-30 01:00N 34°35' E 135°12'5 9.4
2018-May-30 00:29N 34°35' E 135°06'12 7.2
2018-May-29 22:51N 34°34' E 134°52'3 8.5
2018-May-29 22:28N 34°33' E 134°48'4 9.0
2018-May-29 22:00N 34°31' E 134°43'5 9.8
2018-May-29 21:30N 34°29' E 134°38'510.0
2018-May-29 21:00N 34°28' E 134°32'510.0
2018-May-29 20:30N 34°26' E 134°27'  
Track history (hours):
 
Tides and Currents Weather Stations Pressure Air Temp Water Temp Dewpoint Dewpoint Depression Visibility Wind Speed Wind Dir Waves Ship Positions

Dong Hao

Last reported at 2018-Jun-07 22:22 UTC. Time now 2018-Jun-18 17:37 UTC.
Position N 31°01' E 122°33'.
Warning: this ship's position is 10 days out of date.

Length 76 m; draft 4.8 m.

Type: Cargo ship. MMSI: 667001752.

Date/timePositionNaut miles runAvg speedWind from/ knotsBaromVisibWave heightAir tempDewpointWater temp
2018-Jun-07 22:22N 31°01' E 122°33'  
2018-Jun-02 15:24N 34°28' E 134°30'6 9.3
2018-Jun-02 14:47N 34°30' E 134°37'3 9.8
2018-Jun-02 14:30N 34°31' E 134°40'510.7
2018-Jun-02 14:00N 34°33' E 134°46'1212.4
2018-Jun-02 13:00N 34°38' E 134°60'611.4
2018-Jun-02 12:30N 34°36' E 135°06'4 8.8
2018-Jun-02 12:00N 34°36' E 135°12'4 8.9
2018-Jun-02 11:30N 34°36' E 135°17'4 8.7
2018-Jun-02 11:00N 34°38' E 135°22'3 5.6
2018-Jun-02 10:30N 34°37' E 135°25'0 0.0
2018-Jun-02 09:53N 34°37' E 135°25'0 0.0
2018-Jun-02 09:29N 34°37' E 135°25'0 0.0
2018-Jun-02 08:53N 34°37' E 135°25'0 0.0
2018-Jun-02 08:29N 34°37' E 135°25'0 0.0
2018-Jun-02 07:47N 34°37' E 135°25'0 0.0
2018-Jun-02 07:29N 34°37' E 135°25'0 0.0
2018-Jun-02 06:59N 34°37' E 135°25'0 0.0
2018-Jun-02 06:29N 34°37' E 135°25'0 0.0
2018-Jun-02 05:53N 34°37' E 135°25'0 0.0
2018-Jun-02 05:17N 34°37' E 135°25'0 0.0
2018-Jun-02 03:41N 34°37' E 135°25'0 0.0
2018-Jun-02 03:23N 34°37' E 135°25'0 0.0
2018-Jun-02 02:59N 34°37' E 135°25'0 0.0
2018-Jun-02 02:29N 34°37' E 135°25'0 0.0
2018-Jun-02 01:59N 34°37' E 135°25'0 0.0
2018-Jun-02 01:29N 34°37' E 135°25'0 0.0
2018-Jun-02 00:59N 34°37' E 135°25'0 0.0
2018-Jun-02 00:17N 34°37' E 135°25'0 0.0
2018-Jun-01 23:59N 34°37' E 135°25'0 0.0
2018-Jun-01 23:23N 34°37' E 135°25'0 0.0
2018-Jun-01 22:53N 34°37' E 135°25'0 0.0
2018-Jun-01 10:10N 34°37' E 135°25'0 0.0
2018-Jun-01 09:52N 34°37' E 135°25'0 0.0
2018-Jun-01 09:22N 34°37' E 135°25'0 0.0
2018-Jun-01 08:52N 34°37' E 135°25'0 0.0
2018-Jun-01 08:04N 34°37' E 135°25'0 0.0
2018-Jun-01 07:58N 34°37' E 135°25'0 0.0
2018-Jun-01 07:10N 34°37' E 135°25'0 0.0
2018-Jun-01 06:52N 34°37' E 135°25'0 0.0
2018-Jun-01 06:28N 34°37' E 135°25'0 0.0
2018-Jun-01 05:58N 34°37' E 135°25'0 0.0
2018-May-31 21:22N 34°37' E 135°25'0 0.0
2018-May-31 11:34N 34°37' E 135°25'0 0.0
2018-May-31 11:10N 34°37' E 135°25'0 0.0
2018-May-31 10:46N 34°37' E 135°25'0 0.0
2018-May-31 10:16N 34°37' E 135°25'0 0.0
2018-May-31 09:04N 34°37' E 135°25'0 0.1
2018-May-31 08:58N 34°37' E 135°25'0 0.0
2018-May-31 08:22N 34°37' E 135°25'0 0.0
2018-May-31 07:58N 34°37' E 135°25'0 0.0
2018-May-31 07:17N 34°37' E 135°25'0 0.0
2018-May-31 06:47N 34°37' E 135°25'0 0.0
2018-May-31 06:29N 34°37' E 135°25'0 0.0
2018-May-31 05:59N 34°37' E 135°25'0 0.0
2018-May-31 04:41N 34°37' E 135°25'0 0.0
2018-May-31 04:29N 34°37' E 135°25'0 0.0
2018-May-31 03:52N 34°37' E 135°25'0 0.0
2018-May-31 03:16N 34°37' E 135°25'0 0.0
2018-May-31 02:52N 34°37' E 135°25'0 0.0
2018-May-31 02:28N 34°37' E 135°25'0 0.0
2018-May-31 01:04N 34°37' E 135°25'0 0.0
2018-May-31 00:40N 34°37' E 135°25'0 0.0
2018-May-31 00:16N 34°37' E 135°25'0 0.0
2018-May-30 23:52N 34°37' E 135°25'0 0.0
2018-May-30 23:22N 34°37' E 135°25'0 0.0
2018-May-30 22:58N 34°37' E 135°25'0 0.0
2018-May-30 22:28N 34°37' E 135°25'1 2.1
2018-May-30 21:59N 34°37' E 135°24'1 2.4
2018-May-30 21:30N 34°37' E 135°23'0 0.0
2018-May-30 20:54N 34°37' E 135°23'0 0.0
2018-May-30 20:30N 34°37' E 135°23'0 0.0
2018-May-30 19:48N 34°37' E 135°23'0 0.0
2018-May-30 19:18N 34°37' E 135°23'0 0.0
2018-May-30 19:00N 34°37' E 135°23'0 0.1
2018-May-30 18:30N 34°37' E 135°23'0 0.0
2018-May-30 17:54N 34°38' E 135°23'0 0.0
2018-May-30 17:30N 34°38' E 135°23'0 0.0
2018-May-30 17:00N 34°38' E 135°23'0 0.1
2018-May-30 16:24N 34°37' E 135°23'0 0.0
2018-May-30 16:00N 34°37' E 135°23'0 0.0
2018-May-30 13:42N 34°38' E 135°23'0 0.0
2018-May-30 13:30N 34°37' E 135°23'0 0.0
2018-May-30 12:24N 34°37' E 135°23'0 0.1
2018-May-30 12:00N 34°37' E 135°23'0 0.0
2018-May-30 11:30N 34°37' E 135°23'0 0.0
2018-May-30 10:24N 34°37' E 135°23'0 0.0
2018-May-30 09:54N 34°37' E 135°23'0 0.0
2018-May-30 09:24N 34°37' E 135°23'0 0.1
2018-May-30 09:00N 34°37' E 135°23'0 0.1
2018-May-30 08:24N 34°37' E 135°23'0 0.0
2018-May-30 06:42N 34°37' E 135°23'0 0.0
2018-May-30 05:00N 34°37' E 135°23'0 0.0
2018-May-30 04:30N 34°37' E 135°23'0 0.0
2018-May-30 04:00N 34°37' E 135°23'0 0.0
2018-May-30 03:24N 34°37' E 135°23'0 0.0
2018-May-30 03:00N 34°37' E 135°23'0 0.0
2018-May-30 02:30N 34°37' E 135°23'1 1.1
2018-May-30 02:00N 34°37' E 135°22'4 8.6
2018-May-30 01:30N 34°36' E 135°17'4 9.1
2018-May-30 01:00N 34°35' E 135°12'5 9.4
2018-May-30 00:29N 34°35' E 135°06'12 7.2
2018-May-29 22:51N 34°34' E 134°52'3 8.5
2018-May-29 22:28N 34°33' E 134°48'4 9.0
2018-May-29 22:00N 34°31' E 134°43'5 9.8
2018-May-29 21:30N 34°29' E 134°38'510.0
2018-May-29 21:00N 34°28' E 134°32'510.0
2018-May-29 20:30N 34°26' E 134°27'  

Dump ship's entire track history